Buoy 41607

sailwx.info

Track history (hours):
 
Tides and Currents Weather Stations Pressure Air Temp Water Temp Dewpoint Dewpoint Depression Visibility Wind Speed Wind Dir Waves Ship Positions

Drifting buoy 41607

Last reported at 2015-Jul-31 17:00 UTC. Time now 2015-Jul-31 23:25 UTC.
Position N 27°47' W 066°36'.

Water temperature 29.6 ° C

Date/timePositionNaut miles runAvg speedWind from/ knotsBaromVisibWave heightAir tempDewpointWater temp
2015-Jul-31 17:00N 27°47' W 066°36'3 0.4 29.6
2015-Jul-31 09:00N 27°49' W 066°34'3 0.3 29.2
2015-Jul-30 23:00N 27°52' W 066°35'0 0.1 29.8
2015-Jul-30 22:00N 27°52' W 066°35'2 0.3 29.9
2015-Jul-30 17:00N 27°51' W 066°33'1 0.4 29.7
2015-Jul-30 14:00N 27°51' W 066°32'11 0.4 29.0
2015-Jul-29 11:00N 28°02' W 066°32'7 0.8 28.6
2015-Jul-29 02:00N 28°09' W 066°33'4 0.3 28.8
2015-Jul-28 15:00N 28°11' W 066°36'1 0.3 28.8
2015-Jul-28 13:00N 28°11' W 066°36'1 0.5 28.7
2015-Jul-28 11:00N 28°12' W 066°35'2 0.6 28.6
2015-Jul-28 08:00N 28°14' W 066°35'4 0.7 28.7
2015-Jul-28 02:00N 28°17' W 066°38'1 0.4 28.8
2015-Jul-28 00:00N 28°18' W 066°38'0 0.5 28.9
2015-Jul-27 23:00N 28°18' W 066°39'1 0.5 29.0
2015-Jul-27 20:00N 28°18' W 066°40'1 0.2 29.2
2015-Jul-27 15:00N 28°17' W 066°41'2 0.4 29.0
2015-Jul-27 11:00N 28°18' W 066°41'0 0.0 28.7
2015-Jul-27 10:00N 28°18' W 066°41'1 0.5 28.7
2015-Jul-27 08:00N 28°19' W 066°41'2 0.3 28.7
2015-Jul-27 02:00N 28°21' W 066°42'1 0.2 28.8
2015-Jul-26 23:00N 28°21' W 066°43'2 0.8 28.9
2015-Jul-26 21:00N 28°22' W 066°44'0 0.0 29.0
2015-Jul-26 20:00N 28°22' W 066°44'0 0.0 29.0
2015-Jul-26 19:00N 28°22' W 066°44'0 0.0 29.0
2015-Jul-26 18:00N 28°22' W 066°44'1 0.7 29.0
2015-Jul-26 17:00N 28°21' W 066°45'0 0.4 28.9
2015-Jul-26 16:00N 28°21' W 066°45'0 0.0 28.9
2015-Jul-26 15:00N 28°21' W 066°45'0 0.2 28.9
2015-Jul-26 14:00N 28°21' W 066°45'1 0.6 28.8
2015-Jul-26 13:00N 28°22' W 066°46'0 0.0 28.8
2015-Jul-26 12:00N 28°22' W 066°46'1 0.3 28.8
2015-Jul-26 10:00N 28°22' W 066°46'1 0.5 28.8
2015-Jul-26 09:00N 28°22' W 066°45'4 0.4 28.7
2015-Jul-26 01:00N 28°25' W 066°48'4 0.6 28.9
2015-Jul-25 18:00N 28°25' W 066°53'0 0.1 29.1
2015-Jul-25 13:00N 28°25' W 066°53'0 0.1 28.9
2015-Jul-25 10:00N 28°24' W 066°53'0 0.1 28.9
2015-Jul-25 09:00N 28°24' W 066°53'0 0.1 28.9
2015-Jul-25 07:00N 28°24' W 066°53'0 0.5 28.9
2015-Jul-25 06:00N 28°25' W 066°54'2 0.3 28.9
2015-Jul-25 00:00N 28°26' W 066°56'0 0.0 29.0
2015-Jul-24 23:00N 28°26' W 066°56'3 0.9 29.0
2015-Jul-24 20:00N 28°25' W 066°59'5 0.2 29.1
2015-Jul-23 20:00N 28°26' W 067°05'2 0.4 29.4
2015-Jul-23 14:00N 28°24' W 067°05'3 0.2 29.1
2015-Jul-22 23:00N 28°26' W 067°08'0 0.4 29.2
2015-Jul-22 22:00N 28°25' W 067°09'2 0.4 29.2
2015-Jul-22 17:00N 28°24' W 067°11'1 0.1 29.2
2015-Jul-22 08:00N 28°23' W 067°11'3 0.4 29.1
2015-Jul-22 01:00N 28°24' W 067°14'2 0.7 29.3
2015-Jul-21 22:00N 28°23' W 067°16'   29.3
Track history (hours):
 
Tides and Currents Weather Stations Pressure Air Temp Water Temp Dewpoint Dewpoint Depression Visibility Wind Speed Wind Dir Waves Ship Positions

Drifting buoy 41607

Last reported at 2015-Jul-31 17:00 UTC. Time now 2015-Jul-31 23:25 UTC.
Position N 27°47' W 066°36'.

Water temperature 29.6 ° C

Date/timePositionNaut miles runAvg speedWind from/ knotsBaromVisibWave heightAir tempDewpointWater temp
2015-Jul-31 17:00N 27°47' W 066°36'3 0.4 29.6
2015-Jul-31 09:00N 27°49' W 066°34'3 0.3 29.2
2015-Jul-30 23:00N 27°52' W 066°35'0 0.1 29.8
2015-Jul-30 22:00N 27°52' W 066°35'2 0.3 29.9
2015-Jul-30 17:00N 27°51' W 066°33'1 0.4 29.7
2015-Jul-30 14:00N 27°51' W 066°32'11 0.4 29.0
2015-Jul-29 11:00N 28°02' W 066°32'7 0.8 28.6
2015-Jul-29 02:00N 28°09' W 066°33'4 0.3 28.8
2015-Jul-28 15:00N 28°11' W 066°36'1 0.3 28.8
2015-Jul-28 13:00N 28°11' W 066°36'1 0.5 28.7
2015-Jul-28 11:00N 28°12' W 066°35'2 0.6 28.6
2015-Jul-28 08:00N 28°14' W 066°35'4 0.7 28.7
2015-Jul-28 02:00N 28°17' W 066°38'1 0.4 28.8
2015-Jul-28 00:00N 28°18' W 066°38'0 0.5 28.9
2015-Jul-27 23:00N 28°18' W 066°39'1 0.5 29.0
2015-Jul-27 20:00N 28°18' W 066°40'1 0.2 29.2
2015-Jul-27 15:00N 28°17' W 066°41'2 0.4 29.0
2015-Jul-27 11:00N 28°18' W 066°41'0 0.0 28.7
2015-Jul-27 10:00N 28°18' W 066°41'1 0.5 28.7
2015-Jul-27 08:00N 28°19' W 066°41'2 0.3 28.7
2015-Jul-27 02:00N 28°21' W 066°42'1 0.2 28.8
2015-Jul-26 23:00N 28°21' W 066°43'2 0.8 28.9
2015-Jul-26 21:00N 28°22' W 066°44'0 0.0 29.0
2015-Jul-26 20:00N 28°22' W 066°44'0 0.0 29.0
2015-Jul-26 19:00N 28°22' W 066°44'0 0.0 29.0
2015-Jul-26 18:00N 28°22' W 066°44'1 0.7 29.0
2015-Jul-26 17:00N 28°21' W 066°45'0 0.4 28.9
2015-Jul-26 16:00N 28°21' W 066°45'0 0.0 28.9
2015-Jul-26 15:00N 28°21' W 066°45'0 0.2 28.9
2015-Jul-26 14:00N 28°21' W 066°45'1 0.6 28.8
2015-Jul-26 13:00N 28°22' W 066°46'0 0.0 28.8
2015-Jul-26 12:00N 28°22' W 066°46'1 0.3 28.8
2015-Jul-26 10:00N 28°22' W 066°46'1 0.5 28.8
2015-Jul-26 09:00N 28°22' W 066°45'4 0.4 28.7
2015-Jul-26 01:00N 28°25' W 066°48'4 0.6 28.9
2015-Jul-25 18:00N 28°25' W 066°53'0 0.1 29.1
2015-Jul-25 13:00N 28°25' W 066°53'0 0.1 28.9
2015-Jul-25 10:00N 28°24' W 066°53'0 0.1 28.9
2015-Jul-25 09:00N 28°24' W 066°53'0 0.1 28.9
2015-Jul-25 07:00N 28°24' W 066°53'0 0.5 28.9
2015-Jul-25 06:00N 28°25' W 066°54'2 0.3 28.9
2015-Jul-25 00:00N 28°26' W 066°56'0 0.0 29.0
2015-Jul-24 23:00N 28°26' W 066°56'3 0.9 29.0
2015-Jul-24 20:00N 28°25' W 066°59'5 0.2 29.1
2015-Jul-23 20:00N 28°26' W 067°05'2 0.4 29.4
2015-Jul-23 14:00N 28°24' W 067°05'3 0.2 29.1
2015-Jul-22 23:00N 28°26' W 067°08'0 0.4 29.2
2015-Jul-22 22:00N 28°25' W 067°09'2 0.4 29.2
2015-Jul-22 17:00N 28°24' W 067°11'1 0.1 29.2
2015-Jul-22 08:00N 28°23' W 067°11'3 0.4 29.1
2015-Jul-22 01:00N 28°24' W 067°14'2 0.7 29.3
2015-Jul-21 22:00N 28°23' W 067°16'   29.3

Dump ship's entire track history